Lost Hills, California
Current Conditions -  °F | °C
As of 6:54 PM on Tuesday 21 Oct 2014 (Local Time) from KBFL Reporting Station
Clear Clear  
Wind Chill: 19°   Ceiling: Unl
Heat Index: 19°   Visibility: 10mi
Dew Point:   Wind: 5mph
Humidity: 42%   Direction: 320°NW
Pressure: 29.98"   Gusts: NA
Location:  35.62°N, 119.7°W
Report Text: KBFL 220154Z 32004KT 10SM CLR 19/06 A2998 RMK AO2 SLP149 T01940061
Loading
Personal Weather Stations






























Interactive Weather Map
Tropical Storm Tracking
New forecast layout! Learn more

10-Day Weather Forecast

Advertisements
Track Severe Weather on mobile